Time;durP1;ratioP1;P1;durP2;ratioP2;P2;SDS_P1;SDS_P2;PMS_P1;PMS_P2;Temp;Humidity;BMP_temperature;BMP_pressure;BME280_temperature;BME280_humidity;BME280_pressure;Samples;Min_cycle;Max_cycle;Signal;HPM_P1;HPM_P2
2021/06/15 00:01:08;;;;;;;5.55;2.08;;;;;;;;;;4880372;29;20033;-45
2021/06/15 00:03:33;;;;;;;3.35;1.70;;;;;;;;;;4879986;29;20480;-45
2021/06/15 00:05:59;;;;;;;4.70;2.10;;;;;;;;;;4879940;29;20035;-46
2021/06/15 00:08:24;;;;;;;5.40;1.77;;;;;;;;;;4878648;29;20081;-46
2021/06/15 00:10:49;;;;;;;7.32;2.20;;;;;;;;;;4878609;29;20029;-45
2021/06/15 00:13:15;;;;;;;2.33;1.88;;;;;;;;;;4880166;29;20040;-44
2021/06/15 00:15:41;;;;;;;2.67;1.77;;;;;;;;;;4879749;29;20025;-46
2021/06/15 00:18:06;;;;;;;10.57;2.22;;;;;;;;;;4879710;29;20029;-45
2021/06/15 00:20:32;;;;;;;2.60;1.73;;;;;;;;;;4879761;29;20033;-46
2021/06/15 00:22:57;;;;;;;3.28;2.00;;;;;;;;;;4879751;29;20388;-45
2021/06/15 00:25:23;;;;;;;2.28;1.50;;;;;;;;;;4878425;29;20037;-44
2021/06/15 00:27:48;;;;;;;4.68;2.10;;;;;;;;;;4879741;29;20021;-45
2021/06/15 00:30:16;;;;;;;5.18;2.60;;;;;;;;;;4879419;29;20108;-45
2021/06/15 00:32:42;;;;;;;5.47;1.98;;;;;;;;;;4879419;29;20048;-45
2021/06/15 00:35:07;;;;;;;2.85;1.63;;;;;;;;;;4879471;29;20067;-45
2021/06/15 00:37:33;;;;;;;8.10;2.05;;;;;;;;;;4879357;29;20048;-45
2021/06/15 00:39:58;;;;;;;7.03;1.80;;;;;;;;;;4878058;29;20029;-44
2021/06/15 00:42:24;;;;;;;4.60;1.80;;;;;;;;;;4879319;29;20021;-45
2021/06/15 00:44:49;;;;;;;4.43;2.05;;;;;;;;;;4879367;29;20029;-45
2021/06/15 00:47:16;;;;;;;4.20;1.77;;;;;;;;;;4877974;29;20032;-46
2021/06/15 00:49:42;;;;;;;6.63;2.17;;;;;;;;;;4879190;29;20033;-45
2021/06/15 00:52:08;;;;;;;2.10;1.77;;;;;;;;;;4877753;29;20025;-45
2021/06/15 00:54:34;;;;;;;2.15;1.85;;;;;;;;;;4879338;29;20033;-46
2021/06/15 00:56:59;;;;;;;2.30;1.42;;;;;;;;;;4879002;29;20465;-45
2021/06/15 00:59:25;;;;;;;6.25;1.88;;;;;;;;;;4877760;29;20387;-45
2021/06/15 01:01:51;;;;;;;6.07;2.00;;;;;;;;;;4879191;29;20031;-44
2021/06/15 01:04:17;;;;;;;2.25;1.48;;;;;;;;;;4878980;29;20029;-45
2021/06/15 01:06:55;;;;;;;5.45;1.85;;;;;;;;;;4878714;29;20033;-46
2021/06/15 01:09:56;;;;;;;4.43;1.95;;;;;;;;;;4879195;29;20037;-45
2021/06/15 01:12:22;;;;;;;4.55;1.73;;;;;;;;;;4895177;29;20036;-44
2021/06/15 01:15:05;;;;;;;3.42;1.80;;;;;;;;;;4882190;29;20385;-44
2021/06/15 01:17:34;;;;;;;4.03;2.47;;;;;;;;;;4877461;29;20132;-44
2021/06/15 01:19:59;;;;;;;2.92;1.40;;;;;;;;;;4878957;29;20084;-44
2021/06/15 01:22:41;;;;;;;7.28;1.85;;;;;;;;;;4878813;29;20044;-45
2021/06/15 01:25:15;;;;;;;1.63;1.38;;;;;;;;;;4877434;29;20386;-45
2021/06/15 01:27:46;;;;;;;4.15;1.63;;;;;;;;;;4878678;29;20104;-44
2021/06/15 01:30:13;;;;;;;5.65;1.60;;;;;;;;;;4878713;29;20040;-45
2021/06/15 01:32:43;;;;;;;2.03;1.45;;;;;;;;;;4877439;29;20032;-45
2021/06/15 01:35:10;;;;;;;6.10;1.52;;;;;;;;;;4878536;29;20040;-44
2021/06/15 01:37:43;;;;;;;3.75;1.88;;;;;;;;;;4878446;29;20049;-45
2021/06/15 01:40:13;;;;;;;5.90;1.90;;;;;;;;;;4878845;29;20086;-46
2021/06/15 01:42:49;;;;;;;3.40;1.70;;;;;;;;;;4877187;29;20120;-45
2021/06/15 01:45:29;;;;;;;2.50;1.23;;;;;;;;;;4877292;29;20061;-46
2021/06/15 01:48:13;;;;;;;4.00;1.73;;;;;;;;;;4877280;29;20392;-45
2021/06/15 01:50:43;;;;;;;7.60;2.08;;;;;;;;;;4877257;29;20033;-45
2021/06/15 01:53:12;;;;;;;4.07;1.63;;;;;;;;;;4877224;29;20400;-45
2021/06/15 01:55:40;;;;;;;4.93;1.95;;;;;;;;;;4877285;29;20060;-44
2021/06/15 01:58:05;;;;;;;2.42;1.80;;;;;;;;;;4878620;29;20106;-45
2021/06/15 02:00:31;;;;;;;3.13;1.83;;;;;;;;;;4877234;29;20033;-45
2021/06/15 02:03:01;;;;;;;2.70;1.50;;;;;;;;;;4877135;29;20388;-44
2021/06/15 02:05:41;;;;;;;2.72;1.52;;;;;;;;;;4880801;29;20089;-46
2021/06/15 02:08:07;;;;;;;6.15;1.70;;;;;;;;;;4882305;29;20508;-44
2021/06/15 02:10:39;;;;;;;2.85;2.08;;;;;;;;;;4881910;29;20025;-45
2021/06/15 02:13:29;;;;;;;4.47;1.67;;;;;;;;;;4881379;29;20033;-45
2021/06/15 02:16:07;;;;;;;3.58;1.40;;;;;;;;;;4880596;29;20037;-45
2021/06/15 02:18:52;;;;;;;5.03;2.00;;;;;;;;;;4880521;29;20041;-45
2021/06/15 02:21:28;;;;;;;3.20;1.63;;;;;;;;;;4880674;29;20029;-45
2021/06/15 02:23:56;;;;;;;2.63;1.40;;;;;;;;;;4880321;29;20084;-45
2021/06/15 02:26:24;;;;;;;2.33;1.63;;;;;;;;;;4881777;29;20089;-45
2021/06/15 02:28:50;;;;;;;2.92;1.35;;;;;;;;;;4881538;29;20062;-45
2021/06/15 02:31:17;;;;;;;1.98;1.60;;;;;;;;;;4881898;29;20070;-45
2021/06/15 02:33:48;;;;;;;5.80;1.40;;;;;;;;;;4880247;29;20041;-46
2021/06/15 02:36:24;;;;;;;5.60;1.73;;;;;;;;;;4881487;29;20120;-45
2021/06/15 02:39:13;;;;;;;2.58;1.67;;;;;;;;;;4881285;29;20067;-46
2021/06/15 02:41:40;;;;;;;6.25;1.80;;;;;;;;;;4879857;29;20078;-46
2021/06/15 02:44:07;;;;;;;3.20;2.08;;;;;;;;;;4880030;29;20028;-44
2021/06/15 02:46:34;;;;;;;4.00;1.80;;;;;;;;;;4880094;29;20032;-45
2021/06/15 02:49:00;;;;;;;6.75;1.73;;;;;;;;;;4881513;29;20021;-46
2021/06/15 02:51:28;;;;;;;2.38;1.70;;;;;;;;;;4880298;29;20044;-46
2021/06/15 02:54:12;;;;;;;2.67;1.63;;;;;;;;;;4879864;29;20021;-46
2021/06/15 02:56:40;;;;;;;4.35;1.80;;;;;;;;;;4879910;29;20045;-45
2021/06/15 02:59:07;;;;;;;2.55;1.55;;;;;;;;;;4879776;29;20017;-45
2021/06/15 03:01:32;;;;;;;2.15;1.30;;;;;;;;;;4879858;29;20033;-45
2021/06/15 03:04:01;;;;;;;3.42;1.60;;;;;;;;;;4879708;29;20036;-47
2021/06/15 03:06:26;;;;;;;2.33;1.38;;;;;;;;;;4879753;29;20370;-45
2021/06/15 03:08:52;;;;;;;5.53;2.35;;;;;;;;;;4879615;29;20021;-45
2021/06/15 03:11:19;;;;;;;1.90;1.77;;;;;;;;;;4879747;29;20112;-46
2021/06/15 03:13:52;;;;;;;3.05;1.42;;;;;;;;;;4879469;29;20370;-45
2021/06/15 03:16:19;;;;;;;2.20;1.30;;;;;;;;;;4878396;29;20039;-45
2021/06/15 03:19:01;;;;;;;2.95;1.40;;;;;;;;;;4879464;29;20094;-44
2021/06/15 03:21:29;;;;;;;3.03;1.42;;;;;;;;;;4879526;29;20033;-45
2021/06/15 03:23:58;;;;;;;2.17;1.30;;;;;;;;;;4880831;29;20025;-45
2021/06/15 03:26:30;;;;;;;4.22;1.45;;;;;;;;;;4880729;29;20025;-44
2021/06/15 03:28:57;;;;;;;2.40;1.70;;;;;;;;;;4880381;29;20043;-45
2021/06/15 03:31:25;;;;;;;2.42;1.48;;;;;;;;;;4879314;29;20361;-44
2021/06/15 03:33:53;;;;;;;5.25;1.73;;;;;;;;;;4879118;29;20488;-45
2021/06/15 03:36:20;;;;;;;4.55;1.73;;;;;;;;;;4879131;29;20076;-45
2021/06/15 03:38:47;;;;;;;4.00;1.98;;;;;;;;;;4879012;29;20113;-45
2021/06/15 03:41:13;;;;;;;3.97;1.67;;;;;;;;;;4880574;29;20056;-45
2021/06/15 03:43:44;;;;;;;1.83;1.38;;;;;;;;;;4879021;29;20033;-44
2021/06/15 03:46:11;;;;;;;10.27;1.95;;;;;;;;;;4879088;29;20120;-45
2021/06/15 03:48:40;;;;;;;3.03;1.67;;;;;;;;;;4880379;29;20080;-44
2021/06/15 03:51:09;;;;;;;3.47;2.10;;;;;;;;;;4880114;29;20042;-45
2021/06/15 03:53:35;;;;;;;5.25;1.90;;;;;;;;;;4878971;29;20472;-45
2021/06/15 03:56:02;;;;;;;1.73;1.42;;;;;;;;;;4878931;29;20105;-45
2021/06/15 03:58:28;;;;;;;3.28;1.33;;;;;;;;;;4880308;29;20388;-46
2021/06/15 04:00:54;;;;;;;2.83;1.52;;;;;;;;;;4880014;29;20043;-45
2021/06/15 04:03:19;;;;;;;1.45;1.27;;;;;;;;;;4879944;29;20557;-45
2021/06/15 04:05:46;;;;;;;3.65;1.73;;;;;;;;;;4879890;29;20093;-46
2021/06/15 04:08:14;;;;;;;2.15;1.60;;;;;;;;;;4880042;29;20025;-45
2021/06/15 04:10:41;;;;;;;3.25;1.92;;;;;;;;;;4879708;29;20040;-45
2021/06/15 04:13:07;;;;;;;2.35;1.92;;;;;;;;;;4879806;29;20017;-45
2021/06/15 04:15:34;;;;;;;2.72;1.63;;;;;;;;;;4879852;29;20457;-45
2021/06/15 04:18:00;;;;;;;2.72;1.42;;;;;;;;;;4879596;29;20072;-45
2021/06/15 04:20:30;;;;;;;3.75;1.60;;;;;;;;;;4879774;29;20030;-45
2021/06/15 04:22:57;;;;;;;3.10;1.70;;;;;;;;;;4879513;29;20464;-44
2021/06/15 04:25:25;;;;;;;4.20;1.30;;;;;;;;;;4879579;29;20100;-46
2021/06/15 04:27:51;;;;;;;2.47;1.65;;;;;;;;;;4879400;29;20103;-45
2021/06/15 04:30:19;;;;;;;1.77;1.23;;;;;;;;;;4878364;29;20469;-44
2021/06/15 04:32:44;;;;;;;2.92;1.60;;;;;;;;;;4879381;29;20021;-46
2021/06/15 04:35:10;;;;;;;4.38;1.58;;;;;;;;;;4879512;29;20135;-44
2021/06/15 04:37:36;;;;;;;3.67;1.50;;;;;;;;;;4879223;29;20060;-45
2021/06/15 04:40:11;;;;;;;6.00;1.73;;;;;;;;;;4879487;29;20373;-45
2021/06/15 04:42:57;;;;;;;3.63;1.50;;;;;;;;;;4879332;29;20064;-45
2021/06/15 04:45:28;;;;;;;3.42;1.75;;;;;;;;;;4877847;29;20112;-45
2021/06/15 04:48:03;;;;;;;6.60;2.08;;;;;;;;;;4879078;29;20123;-45
2021/06/15 04:50:29;;;;;;;3.25;1.45;;;;;;;;;;4879255;29;20041;-45
2021/06/15 04:52:56;;;;;;;6.38;1.63;;;;;;;;;;4879018;29;20025;-45
2021/06/15 04:55:24;;;;;;;5.90;1.55;;;;;;;;;;4879274;29;20037;-45
2021/06/15 04:57:50;;;;;;;4.85;2.47;;;;;;;;;;4878963;29;20602;-46
2021/06/15 05:00:16;;;;;;;5.97;1.95;;;;;;;;;;4879004;29;20037;-45
2021/06/15 05:02:43;;;;;;;5.38;1.80;;;;;;;;;;4879177;29;20032;-45
2021/06/15 05:05:10;;;;;;;2.97;1.90;;;;;;;;;;4878897;29;20472;-44
2021/06/15 05:07:35;;;;;;;3.35;1.80;;;;;;;;;;4878599;29;20028;-46
2021/06/15 05:10:02;;;;;;;3.35;1.83;;;;;;;;;;4878781;29;20404;-45
2021/06/15 05:12:36;;;;;;;3.60;1.30;;;;;;;;;;4879122;29;20051;-45
2021/06/15 05:15:06;;;;;;;3.15;1.55;;;;;;;;;;4878784;29;20033;-45
2021/06/15 05:17:31;;;;;;;3.60;1.77;;;;;;;;;;4878749;29;20036;-44
2021/06/15 05:19:57;;;;;;;2.10;1.67;;;;;;;;;;4878716;29;20041;-44
2021/06/15 05:22:25;;;;;;;3.47;1.95;;;;;;;;;;4878727;29;20048;-45
2021/06/15 05:24:52;;;;;;;3.10;1.50;;;;;;;;;;4878635;29;20482;-46
2021/06/15 05:27:18;;;;;;;3.03;1.73;;;;;;;;;;4878814;29;20033;-45
2021/06/15 05:29:44;;;;;;;6.03;2.45;;;;;;;;;;4878595;29;20033;-45
2021/06/15 05:32:10;;;;;;;4.78;1.65;;;;;;;;;;4878914;29;20025;-45
2021/06/15 05:34:36;;;;;;;4.35;1.92;;;;;;;;;;4878481;29;20099;-45
2021/06/15 05:37:03;;;;;;;4.90;2.30;;;;;;;;;;4878024;29;20025;-46
2021/06/15 05:39:29;;;;;;;4.45;2.00;;;;;;;;;;4881005;29;20037;-45
2021/06/15 05:41:54;;;;;;;3.15;1.67;;;;;;;;;;4882692;29;20532;-46
2021/06/15 05:44:20;;;;;;;1.75;1.52;;;;;;;;;;4882090;29;20045;-45
2021/06/15 05:46:45;;;;;;;4.55;2.08;;;;;;;;;;4865425;29;20072;-45
2021/06/15 05:49:11;;;;;;;4.60;2.05;;;;;;;;;;4882373;29;20037;-45
2021/06/15 05:51:37;;;;;;;2.88;1.50;;;;;;;;;;4882307;29;20511;-45
2021/06/15 05:54:03;;;;;;;3.38;1.85;;;;;;;;;;4882461;29;20085;-45
2021/06/15 05:56:32;;;;;;;5.28;1.77;;;;;;;;;;4880923;29;20484;-46
2021/06/15 05:58:58;;;;;;;4.85;2.42;;;;;;;;;;4880909;29;20025;-46
2021/06/15 06:01:25;;;;;;;2.25;1.63;;;;;;;;;;4882228;29;20035;-45
2021/06/15 06:04:06;;;;;;;4.75;1.60;;;;;;;;;;4880579;29;20424;-45
2021/06/15 06:09:15;;;;;;;2.05;1.60;;;;;;;;;;4882175;29;20084;-45
2021/06/15 06:11:41;;;;;;;4.50;1.88;;;;;;;;;;4881957;29;20029;-45
2021/06/15 06:14:06;;;;;;;3.55;1.45;;;;;;;;;;4881875;29;20133;-45
2021/06/15 06:16:33;;;;;;;3.38;1.88;;;;;;;;;;4881904;29;20108;-45
2021/06/15 06:18:59;;;;;;;2.83;1.40;;;;;;;;;;4881764;29;20033;-45
2021/06/15 06:21:27;;;;;;;4.70;2.00;;;;;;;;;;4880643;29;20021;-45
2021/06/15 06:23:52;;;;;;;3.35;1.50;;;;;;;;;;4881948;29;20056;-45
2021/06/15 06:26:17;;;;;;;6.65;1.88;;;;;;;;;;4881728;29;20424;-45
2021/06/15 06:28:43;;;;;;;5.47;1.90;;;;;;;;;;4881674;29;20512;-45
2021/06/15 06:31:08;;;;;;;7.90;1.80;;;;;;;;;;4881620;29;20069;-45
2021/06/15 06:33:34;;;;;;;3.40;1.60;;;;;;;;;;4881533;29;20400;-45
2021/06/15 06:36:00;;;;;;;8.25;1.73;;;;;;;;;;4881466;29;20055;-45
2021/06/15 06:38:25;;;;;;;2.90;2.25;;;;;;;;;;4881429;29;20408;-45
2021/06/15 06:40:51;;;;;;;5.88;2.22;;;;;;;;;;4881565;29;20084;-45
2021/06/15 06:43:16;;;;;;;4.80;1.95;;;;;;;;;;4881679;29;20041;-45
2021/06/15 06:45:42;;;;;;;3.45;1.50;;;;;;;;;;4881713;29;20376;-45
2021/06/15 06:48:08;;;;;;;2.78;1.67;;;;;;;;;;4881239;29;20033;-44
2021/06/15 06:50:34;;;;;;;1.50;1.40;;;;;;;;;;4881105;29;20021;-45
2021/06/15 06:52:59;;;;;;;4.97;1.67;;;;;;;;;;4881428;29;20048;-45
2021/06/15 06:55:25;;;;;;;2.42;1.80;;;;;;;;;;4881407;29;20025;-45
2021/06/15 06:57:50;;;;;;;2.13;1.42;;;;;;;;;;4881043;29;20080;-45
2021/06/15 07:00:16;;;;;;;3.58;1.80;;;;;;;;;;4879923;29;20057;-45
2021/06/15 07:02:41;;;;;;;3.30;1.50;;;;;;;;;;4880950;29;20033;-45
2021/06/15 07:05:07;;;;;;;3.25;1.77;;;;;;;;;;4881336;29;20035;-45
2021/06/15 07:07:33;;;;;;;10.50;1.50;;;;;;;;;;4881072;29;20041;-46
2021/06/15 07:09:58;;;;;;;8.27;2.08;;;;;;;;;;4880818;29;20017;-45
2021/06/15 07:12:24;;;;;;;2.35;1.50;;;;;;;;;;4880944;29;20035;-45
2021/06/15 07:14:49;;;;;;;3.15;1.50;;;;;;;;;;4880891;29;20104;-45
2021/06/15 07:17:14;;;;;;;2.80;1.50;;;;;;;;;;4880978;29;20037;-45
2021/06/15 07:19:40;;;;;;;3.47;2.03;;;;;;;;;;4879901;29;20017;-45
2021/06/15 07:22:07;;;;;;;6.90;2.50;;;;;;;;;;4880679;29;20041;-44
2021/06/15 07:24:33;;;;;;;2.33;1.55;;;;;;;;;;4880569;29;20487;-45
2021/06/15 07:26:58;;;;;;;3.67;2.10;;;;;;;;;;4880544;29;20033;-44
2021/06/15 07:29:23;;;;;;;5.32;2.10;;;;;;;;;;4879498;29;20017;-45
2021/06/15 07:31:49;;;;;;;4.72;2.50;;;;;;;;;;4880498;29;20037;-45
2021/06/15 07:34:14;;;;;;;3.53;2.30;;;;;;;;;;4880548;29;20028;-45
2021/06/15 07:36:40;;;;;;;2.97;1.80;;;;;;;;;;4880738;29;20048;-45
2021/06/15 07:39:05;;;;;;;3.80;2.28;;;;;;;;;;4880163;29;20056;-45
2021/06/15 07:41:30;;;;;;;2.85;1.92;;;;;;;;;;4880686;29;20116;-44
2021/06/15 07:43:56;;;;;;;3.22;2.17;;;;;;;;;;4880522;29;20033;-45
2021/06/15 07:46:21;;;;;;;9.30;2.67;;;;;;;;;;4880307;29;20093;-45
2021/06/15 07:48:46;;;;;;;3.28;1.70;;;;;;;;;;4880376;29;20073;-45
2021/06/15 07:51:12;;;;;;;4.68;2.10;;;;;;;;;;4880362;29;20499;-44
2021/06/15 07:53:38;;;;;;;3.22;2.15;;;;;;;;;;4880104;29;20037;-45
2021/06/15 07:56:03;;;;;;;3.35;1.73;;;;;;;;;;4880038;29;20060;-47
2021/06/15 07:58:28;;;;;;;6.05;2.15;;;;;;;;;;4878883;29;20033;-45
2021/06/15 08:00:54;;;;;;;4.80;1.92;;;;;;;;;;4879442;29;20029;-45
2021/06/15 08:03:19;;;;;;;8.23;1.98;;;;;;;;;;4879970;29;20552;-45
2021/06/15 08:05:45;;;;;;;4.63;1.85;;;;;;;;;;4878780;29;20029;-46
2021/06/15 08:08:10;;;;;;;5.40;1.75;;;;;;;;;;4880171;29;20485;-45
2021/06/15 08:10:35;;;;;;;6.05;2.00;;;;;;;;;;4880186;29;20033;-46
2021/06/15 08:13:01;;;;;;;3.08;1.58;;;;;;;;;;4879659;29;20021;-45
2021/06/15 08:15:27;;;;;;;4.50;2.30;;;;;;;;;;4878642;29;20121;-45
2021/06/15 08:17:53;;;;;;;8.15;2.05;;;;;;;;;;4879861;29;20172;-44
2021/06/15 08:20:18;;;;;;;3.30;2.15;;;;;;;;;;4879767;29;20442;-45
2021/06/15 08:22:44;;;;;;;3.03;1.90;;;;;;;;;;4879574;29;20021;-45
2021/06/15 08:25:09;;;;;;;3.88;1.45;;;;;;;;;;4879857;29;20036;-45
2021/06/15 08:27:35;;;;;;;1.80;1.35;;;;;;;;;;4879631;29;20103;-45
2021/06/15 08:30:02;;;;;;;2.65;1.77;;;;;;;;;;4879394;29;20484;-45
2021/06/15 08:32:27;;;;;;;5.88;1.75;;;;;;;;;;4879516;29;20025;-45
2021/06/15 08:34:53;;;;;;;5.53;1.98;;;;;;;;;;4879336;29;20197;-45
2021/06/15 08:37:18;;;;;;;5.60;1.73;;;;;;;;;;4879214;29;20116;-46
2021/06/15 08:39:43;;;;;;;3.05;1.77;;;;;;;;;;4879480;29;20033;-45
2021/06/15 08:42:09;;;;;;;2.15;1.67;;;;;;;;;;4879132;29;20455;-45
2021/06/15 08:44:35;;;;;;;3.70;1.83;;;;;;;;;;4879467;29;20040;-45
2021/06/15 08:47:00;;;;;;;5.80;1.88;;;;;;;;;;4879156;29;20052;-45
2021/06/15 08:49:26;;;;;;;6.28;1.88;;;;;;;;;;4879247;29;20072;-45
2021/06/15 08:51:52;;;;;;;3.22;2.00;;;;;;;;;;4879127;29;20032;-45
2021/06/15 08:54:19;;;;;;;3.72;2.22;;;;;;;;;;4879121;29;20036;-45
2021/06/15 08:56:45;;;;;;;3.97;1.52;;;;;;;;;;4879249;29;20098;-45
2021/06/15 08:59:25;;;;;;;3.85;1.90;;;;;;;;;;4879060;29;20041;-44
2021/06/15 09:01:51;;;;;;;5.07;2.08;;;;;;;;;;4877756;29;20092;-45
2021/06/15 09:04:17;;;;;;;5.18;2.15;;;;;;;;;;4879184;29;20389;-45
2021/06/15 09:06:43;;;;;;;4.20;1.80;;;;;;;;;;4878925;29;20033;-45
2021/06/15 09:09:08;;;;;;;4.03;1.80;;;;;;;;;;4878933;29;20017;-45
2021/06/15 09:11:53;;;;;;;5.78;2.00;;;;;;;;;;4878898;29;20036;-45
2021/06/15 09:14:37;;;;;;;5.80;2.13;;;;;;;;;;4877640;29;20037;-45
2021/06/15 09:17:02;;;;;;;8.45;2.30;;;;;;;;;;4878618;29;20041;-45
2021/06/15 09:19:28;;;;;;;4.50;1.83;;;;;;;;;;4877581;29;20028;-45
2021/06/15 09:21:57;;;;;;;6.88;2.00;;;;;;;;;;4877614;29;20028;-45
2021/06/15 09:24:24;;;;;;;5.43;1.98;;;;;;;;;;4878657;29;20032;-45
2021/06/15 09:26:50;;;;;;;4.25;1.77;;;;;;;;;;4878982;29;20033;-45
2021/06/15 09:29:16;;;;;;;4.00;1.98;;;;;;;;;;4878790;29;20498;-45
2021/06/15 09:31:50;;;;;;;2.63;1.83;;;;;;;;;;4878674;29;20036;-45
2021/06/15 09:34:15;;;;;;;3.58;2.20;;;;;;;;;;4878683;29;20120;-45
2021/06/15 09:36:43;;;;;;;5.60;2.35;;;;;;;;;;4878922;29;20116;-45
2021/06/15 09:39:09;;;;;;;3.45;2.10;;;;;;;;;;4878330;29;20056;-45
2021/06/15 09:41:39;;;;;;;2.30;1.63;;;;;;;;;;4878633;29;20025;-45
2021/06/15 09:44:12;;;;;;;3.90;2.00;;;;;;;;;;4878498;29;20077;-45
2021/06/15 09:46:48;;;;;;;3.95;1.88;;;;;;;;;;4878860;29;20375;-45
2021/06/15 09:49:34;;;;;;;10.15;2.38;;;;;;;;;;4878482;29;20089;-45
2021/06/15 09:52:13;;;;;;;5.20;2.30;;;;;;;;;;4878349;29;20400;-45
2021/06/15 09:54:39;;;;;;;5.05;3.05;;;;;;;;;;4878522;29;20111;-45
2021/06/15 09:57:05;;;;;;;6.22;3.15;;;;;;;;;;4878363;29;20384;-44
2021/06/15 09:59:31;;;;;;;5.97;2.42;;;;;;;;;;4878688;29;20037;-46
2021/06/15 10:01:56;;;;;;;4.32;1.95;;;;;;;;;;4877168;29;20035;-45
2021/06/15 10:04:27;;;;;;;6.80;2.00;;;;;;;;;;4878713;29;20029;-45
2021/06/15 10:06:54;;;;;;;4.72;2.60;;;;;;;;;;4878245;29;20119;-47
2021/06/15 10:09:23;;;;;;;5.60;2.80;;;;;;;;;;4877281;29;20025;-45
2021/06/15 10:11:49;;;;;;;5.05;2.20;;;;;;;;;;4878397;29;20033;-45
2021/06/15 10:14:14;;;;;;;4.93;2.47;;;;;;;;;;4878259;29;20431;-45
2021/06/15 10:16:41;;;;;;;6.30;3.00;;;;;;;;;;4878492;29;20140;-45
2021/06/15 10:19:06;;;;;;;3.78;2.42;;;;;;;;;;4876634;29;20025;-45
2021/06/15 10:21:34;;;;;;;5.43;2.38;;;;;;;;;;4878294;29;20040;-45
2021/06/15 10:24:02;;;;;;;3.40;2.78;;;;;;;;;;4878481;29;20435;-45
2021/06/15 10:26:27;;;;;;;4.90;3.28;;;;;;;;;;4881759;29;20081;-45
2021/06/15 10:28:52;;;;;;;6.10;2.70;;;;;;;;;;4881564;29;20025;-45
2021/06/15 10:31:25;;;;;;;3.42;2.65;;;;;;;;;;4881798;29;20085;-46
2021/06/15 10:33:51;;;;;;;;;;;;;;;;;;4881871;29;20033;-45
2021/06/15 10:36:16;;;;;;;7.57;3.35;;;;;;;;;;4881639;29;19919;-45
2021/06/15 10:38:43;;;;;;;5.72;2.92;;;;;;;;;;4881363;29;20075;-45
2021/06/15 10:41:19;;;;;;;4.68;3.10;;;;;;;;;;4881673;29;20029;-45
2021/06/15 10:43:45;;;;;;;9.32;3.13;;;;;;;;;;4881679;29;20077;-45
2021/06/15 10:46:14;;;;;;;3.15;2.70;;;;;;;;;;4881266;29;20388;-45
2021/06/15 10:48:44;;;;;;;2.75;2.03;;;;;;;;;;4881706;29;20449;-45
2021/06/15 10:51:36;;;;;;;3.20;2.35;;;;;;;;;;4881182;29;20040;-45
2021/06/15 10:54:22;;;;;;;4.93;3.00;;;;;;;;;;4887180;29;20092;-45
2021/06/15 10:57:07;;;;;;;3.92;3.33;;;;;;;;;;4881019;29;20041;-45
2021/06/15 10:59:52;;;;;;;8.50;3.17;;;;;;;;;;4881033;29;20036;-45
2021/06/15 11:02:18;;;;;;;4.15;3.10;;;;;;;;;;4880979;29;20488;-44
2021/06/15 11:04:43;;;;;;;4.88;3.22;;;;;;;;;;4881321;29;20036;-45
2021/06/15 11:07:23;;;;;;;4.57;3.22;;;;;;;;;;4881037;29;20029;-45
2021/06/15 11:09:49;;;;;;;10.05;2.80;;;;;;;;;;4881342;29;20043;-45
2021/06/15 11:12:16;;;;;;;7.03;1.88;;;;;;;;;;4881120;29;20037;-44
2021/06/15 11:15:01;;;;;;;5.55;3.63;;;;;;;;;;4879704;29;20036;-44
2021/06/15 11:17:41;;;;;;;4.65;3.10;;;;;;;;;;4880696;29;20045;-45
2021/06/15 11:20:07;;;;;;;6.53;3.72;;;;;;;;;;4880846;29;20025;-45
2021/06/15 11:22:33;;;;;;;4.25;3.38;;;;;;;;;;4880765;29;20357;-45
2021/06/15 11:25:03;;;;;;;7.88;3.28;;;;;;;;;;4880868;29;20029;-45
2021/06/15 11:27:28;;;;;;;8.90;4.68;;;;;;;;;;4880788;29;20033;-44
2021/06/15 11:29:59;;;;;;;5.03;2.60;;;;;;;;;;4880505;29;20105;-45
2021/06/15 11:32:28;;;;;;;3.88;3.05;;;;;;;;;;4880808;29;20041;-45
2021/06/15 11:34:53;;;;;;;7.85;4.20;;;;;;;;;;4879259;29;20058;-44
2021/06/15 11:37:25;;;;;;;6.28;3.70;;;;;;;;;;4879550;29;20049;-45
2021/06/15 11:39:51;;;;;;;9.30;3.55;;;;;;;;;;4880507;29;20049;-45
2021/06/15 11:42:29;;;;;;;8.10;3.75;;;;;;;;;;4880345;29;20087;-45
2021/06/15 11:44:56;;;;;;;4.97;3.67;;;;;;;;;;4880585;29;20048;-44
2021/06/15 11:47:41;;;;;;;5.95;4.28;;;;;;;;;;4880267;29;20021;-44
2021/06/15 11:50:12;;;;;;;7.70;4.40;;;;;;;;;;4882715;29;20397;-44
2021/06/15 11:52:41;;;;;;;11.48;4.32;;;;;;;;;;4880235;29;20472;-44
2021/06/15 11:55:07;;;;;;;6.40;3.70;;;;;;;;;;4880065;29;20124;-45
2021/06/15 11:57:33;;;;;;;5.78;3.75;;;;;;;;;;4880104;29;20033;-44
2021/06/15 11:59:58;;;;;;;6.13;4.03;;;;;;;;;;4880053;29;20549;-44
2021/06/15 12:02:24;;;;;;;6.22;3.33;;;;;;;;;;4880202;29;20052;-44
2021/06/15 12:05:09;;;;;;;6.28;3.60;;;;;;;;;;4880097;29;20567;-44
2021/06/15 12:07:35;;;;;;;8.35;4.13;;;;;;;;;;4879962;29;20036;-45
2021/06/15 12:10:21;;;;;;;12.00;3.67;;;;;;;;;;4880162;29;20021;-44
2021/06/15 12:13:01;;;;;;;6.72;4.18;;;;;;;;;;4879610;29;20049;-44
2021/06/15 12:15:26;;;;;;;5.80;3.97;;;;;;;;;;4879796;29;20500;-44
2021/06/15 12:17:52;;;;;;;7.50;4.68;;;;;;;;;;4879595;29;20065;-44
2021/06/15 12:20:23;;;;;;;6.90;4.45;;;;;;;;;;4879774;29;20033;-45
2021/06/15 12:22:48;;;;;;;9.55;4.45;;;;;;;;;;4879627;29;20037;-44
2021/06/15 12:25:14;;;;;;;6.43;3.50;;;;;;;;;;4879602;29;20025;-45
2021/06/15 12:27:40;;;;;;;7.45;4.40;;;;;;;;;;4879659;29;20069;-44
2021/06/15 12:30:05;;;;;;;10.38;3.78;;;;;;;;;;4879670;29;20372;-45
2021/06/15 12:32:44;;;;;;;6.18;4.15;;;;;;;;;;4879549;29;20388;-44
2021/06/15 12:35:17;;;;;;;6.72;4.63;;;;;;;;;;4879436;29;20037;-45
2021/06/15 12:37:42;;;;;;;9.77;4.55;;;;;;;;;;4879216;29;20057;-44
2021/06/15 12:40:08;;;;;;;7.43;5.05;;;;;;;;;;4879348;29;20032;-45
2021/06/15 12:42:33;;;;;;;6.00;4.47;;;;;;;;;;4878103;29;20044;-46
2021/06/15 12:45:00;;;;;;;8.75;4.28;;;;;;;;;;4879154;29;20017;-45
2021/06/15 12:47:28;;;;;;;6.43;4.40;;;;;;;;;;4879051;29;20070;-45
2021/06/15 12:49:55;;;;;;;7.75;5.88;;;;;;;;;;4879209;29;20556;-45
2021/06/15 12:52:21;;;;;;;6.63;4.57;;;;;;;;;;4879139;29;20033;-45
2021/06/15 12:54:47;;;;;;;9.68;5.30;;;;;;;;;;4879169;29;20085;-45
2021/06/15 12:57:15;;;;;;;7.47;5.63;;;;;;;;;;4879202;29;20048;-44
2021/06/15 12:59:42;;;;;;;11.32;5.72;;;;;;;;;;4879114;29;20029;-44
2021/06/15 13:02:11;;;;;;;8.68;5.72;;;;;;;;;;4878940;29;20093;-45
2021/06/15 13:04:43;;;;;;;11.10;5.82;;;;;;;;;;4879278;29;20346;-44
2021/06/15 13:07:11;;;;;;;9.55;5.63;;;;;;;;;;4877709;29;20033;-44
2021/06/15 13:09:36;;;;;;;9.77;6.00;;;;;;;;;;4878999;29;20480;-45
2021/06/15 13:12:04;;;;;;;14.60;6.18;;;;;;;;;;4878746;29;20029;-45
2021/06/15 13:14:42;;;;;;;8.32;5.47;;;;;;;;;;4878926;29;20036;-44
2021/06/15 13:17:21;;;;;;;9.70;6.82;;;;;;;;;;4877643;29;20045;-44
2021/06/15 13:19:47;;;;;;;7.25;5.65;;;;;;;;;;4878763;29;20021;-44
2021/06/15 13:22:41;;;;;;;11.18;5.90;;;;;;;;;;4878719;29;20051;-44
2021/06/15 13:25:08;;;;;;;13.07;6.32;;;;;;;;;;4879090;29;20495;-45
2021/06/15 13:27:39;;;;;;;7.60;5.28;;;;;;;;;;4879009;29;20021;-44
2021/06/15 13:30:04;;;;;;;9.10;5.35;;;;;;;;;;4878870;29;20107;-45
2021/06/15 13:32:30;;;;;;;8.27;5.07;;;;;;;;;;4878972;29;20104;-44
2021/06/15 13:34:56;;;;;;;10.25;4.40;;;;;;;;;;4878787;29;20061;-45
2021/06/15 13:37:24;;;;;;;9.52;5.82;;;;;;;;;;4878713;29;20092;-45
2021/06/15 13:39:50;;;;;;;11.05;7.55;;;;;;;;;;4878620;29;20048;-44
2021/06/15 13:42:21;;;;;;;15.65;7.53;;;;;;;;;;4877297;29;20116;-45
2021/06/15 13:44:59;;;;;;;8.10;5.78;;;;;;;;;;4878913;29;20064;-45
2021/06/15 13:47:24;;;;;;;17.05;6.03;;;;;;;;;;4878634;29;20052;-44
2021/06/15 13:49:49;;;;;;;7.53;5.35;;;;;;;;;;4878664;29;20060;-44
2021/06/15 13:52:15;;;;;;;11.88;5.95;;;;;;;;;;4878665;29;20037;-45
2021/06/15 13:54:40;;;;;;;11.02;5.72;;;;;;;;;;4877202;29;20108;-44
2021/06/15 13:57:05;;;;;;;9.35;6.63;;;;;;;;;;4878663;29;20048;-45
2021/06/15 13:59:31;;;;;;;9.38;6.70;;;;;;;;;;4879390;29;20025;-45
2021/06/15 14:01:56;;;;;;;8.98;6.30;;;;;;;;;;4882329;29;20040;-45
2021/06/15 14:04:21;;;;;;;9.95;7.07;;;;;;;;;;4882195;29;20081;-45
2021/06/15 14:06:47;;;;;;;9.20;6.93;;;;;;;;;;4882078;29;20118;-45
2021/06/15 14:09:13;;;;;;;9.50;5.95;;;;;;;;;;4882058;29;20029;-45
2021/06/15 14:11:39;;;;;;;8.05;5.40;;;;;;;;;;4881911;29;20047;-45
2021/06/15 14:14:04;;;;;;;9.15;6.00;;;;;;;;;;4882258;29;20384;-44
2021/06/15 14:16:30;;;;;;;9.98;6.07;;;;;;;;;;4881894;29;20037;-45
2021/06/15 14:18:55;;;;;;;10.88;6.15;;;;;;;;;;4881872;29;20057;-44
2021/06/15 14:21:21;;;;;;;10.77;6.47;;;;;;;;;;4881887;29;20025;-44
2021/06/15 14:23:46;;;;;;;9.90;6.90;;;;;;;;;;4881715;29;20035;-45
2021/06/15 14:26:12;;;;;;;10.15;6.18;;;;;;;;;;4881696;29;20032;-46
2021/06/15 14:28:38;;;;;;;13.45;7.32;;;;;;;;;;4880550;29;20033;-45
2021/06/15 14:31:04;;;;;;;8.02;5.80;;;;;;;;;;4881530;29;20040;-44
2021/06/15 14:33:29;;;;;;;12.40;6.63;;;;;;;;;;4881970;29;20065;-45
2021/06/15 14:35:55;;;;;;;17.90;7.50;;;;;;;;;;4881488;29;20499;-45
2021/06/15 14:38:20;;;;;;;9.30;6.45;;;;;;;;;;4881417;29;20088;-44
2021/06/15 14:40:46;;;;;;;11.40;8.05;;;;;;;;;;4881641;29;20033;-45
2021/06/15 14:43:11;;;;;;;11.93;6.95;;;;;;;;;;4881360;29;20021;-44
2021/06/15 14:45:38;;;;;;;13.02;7.07;;;;;;;;;;4881482;29;20040;-45
2021/06/15 14:48:04;;;;;;;12.98;8.07;;;;;;;;;;4880130;29;20024;-46
2021/06/15 14:50:30;;;;;;;9.75;6.32;;;;;;;;;;4881646;29;20428;-45
2021/06/15 14:52:55;;;;;;;8.20;6.05;;;;;;;;;;4881387;29;20056;-46